Time;durP1;ratioP1;P1;durP2;ratioP2;P2;SDS_P1;SDS_P2;PMS_P1;PMS_P2;Temp;Humidity;BMP_temperature;BMP_pressure;BME280_temperature;BME280_humidity;BME280_pressure;Samples;Min_cycle;Max_cycle;Signal;HPM_P1;HPM_P2
2021/07/22 00:00:57;;;;;;;12.95;10.43;;;;;;;16.61;100.00;101574.84;4902559;29;20239;-75
2021/07/22 00:03:23;;;;;;;12.57;11.13;;;;;;;16.56;100.00;101581.50;4917795;29;20716;-76
2021/07/22 00:05:51;;;;;;;12.70;11.00;;;;;;;16.56;100.00;101576.81;4933336;29;20223;-75
2021/07/22 00:08:19;;;;;;;13.18;10.70;;;;;;;16.49;100.00;101570.03;4933449;29;20195;-75
2021/07/22 00:10:47;;;;;;;12.52;10.85;;;;;;;16.50;100.00;101571.66;4933295;29;20314;-75
2021/07/22 00:13:12;;;;;;;12.73;9.57;;;;;;;16.42;100.00;101566.81;4933492;29;20216;-75
2021/07/22 00:15:38;;;;;;;11.63;10.10;;;;;;;16.35;100.00;101563.56;4901337;29;20223;-75
2021/07/22 00:18:06;;;;;;;12.68;10.98;;;;;;;16.34;100.00;101567.44;4933259;29;20764;-74
2021/07/22 00:20:32;;;;;;;13.57;10.60;;;;;;;16.36;100.00;101570.69;4917036;29;20227;-75
2021/07/22 00:22:57;;;;;;;12.48;10.55;;;;;;;16.31;100.00;101570.75;4925273;29;20736;-75
2021/07/22 00:25:25;;;;;;;14.13;11.60;;;;;;;16.33;100.00;101565.78;4932941;29;20712;-75
2021/07/22 00:27:53;;;;;;;12.60;10.77;;;;;;;16.36;100.00;101566.03;4911094;29;20646;-76
2021/07/22 00:30:21;;;;;;;13.52;10.90;;;;;;;16.46;100.00;101571.41;4917929;28;20332;-75
2021/07/22 00:32:46;;;;;;;12.23;10.88;;;;;;;16.41;100.00;101574.22;4933267;29;20192;-75
2021/07/22 00:35:16;;;;;;;12.80;10.82;;;;;;;16.36;100.00;101565.22;4933033;29;20199;-76
2021/07/22 00:37:42;;;;;;;12.38;10.63;;;;;;;16.30;100.00;101560.84;4948687;29;20274;-75
2021/07/22 00:40:11;;;;;;;12.85;11.15;;;;;;;16.32;100.00;101555.94;4916558;29;20701;-75
2021/07/22 00:43:00;;;;;;;12.35;10.10;;;;;;;16.24;100.00;101562.84;4917898;29;20188;-75
2021/07/22 00:45:28;;;;;;;11.32;9.77;;;;;;;16.27;100.00;101573.22;4917106;29;20230;-75
2021/07/22 00:47:58;;;;;;;12.27;11.00;;;;;;;16.14;100.00;101558.53;4913674;29;20646;-75
2021/07/22 00:50:24;;;;;;;14.73;11.27;;;;;;;16.13;100.00;101565.91;4916970;28;20219;-75
2021/07/22 00:52:50;;;;;;;13.70;11.80;;;;;;;16.15;100.00;101566.44;4933048;29;20175;-75
2021/07/22 00:55:19;;;;;;;13.93;11.70;;;;;;;16.17;100.00;101564.22;4900338;29;20238;-75
2021/07/22 00:57:45;;;;;;;14.07;10.90;;;;;;;16.12;100.00;101567.03;4917575;29;20596;-75
2021/07/22 01:00:11;;;;;;;14.52;11.80;;;;;;;16.07;100.00;101556.09;4932205;28;20204;-75
2021/07/22 01:02:40;;;;;;;14.50;11.50;;;;;;;16.10;100.00;101560.19;4933098;29;20183;-75
2021/07/22 01:05:06;;;;;;;13.45;11.75;;;;;;;16.03;100.00;101560.53;4916981;29;20211;-75
2021/07/22 01:07:38;;;;;;;15.10;11.60;;;;;;;15.99;100.00;101547.69;4917189;29;20219;-75
2021/07/22 01:10:08;;;;;;;13.02;10.95;;;;;;;15.96;100.00;101560.00;4917000;28;20619;-75
2021/07/22 01:12:36;;;;;;;14.15;11.50;;;;;;;16.03;100.00;101556.97;4917009;29;20591;-75
2021/07/22 01:15:02;;;;;;;13.95;11.02;;;;;;;16.01;100.00;101562.72;4882317;29;20212;-74
2021/07/22 01:17:47;;;;;;;13.70;11.57;;;;;;;16.08;100.00;101557.75;4929042;29;20717;-75
2021/07/22 01:20:19;;;;;;;14.15;11.65;;;;;;;16.04;100.00;101559.41;4932339;29;20695;-74
2021/07/22 01:22:50;;;;;;;12.77;11.05;;;;;;;16.06;100.00;101554.47;4933143;29;20787;-75
2021/07/22 01:25:18;;;;;;;13.73;11.50;;;;;;;16.16;100.00;101551.66;4932815;29;20191;-75
2021/07/22 01:27:46;;;;;;;15.68;11.50;;;;;;;16.16;100.00;101543.41;4932337;29;20835;-75
2021/07/22 01:30:15;;;;;;;14.23;12.43;;;;;;;16.07;100.00;101544.31;4916517;28;20179;-75
2021/07/22 01:32:44;;;;;;;15.20;11.90;;;;;;;16.08;100.00;101552.28;4917988;29;20200;-74
2021/07/22 01:35:10;;;;;;;14.48;12.30;;;;;;;15.96;100.00;101559.22;4916425;28;20753;-75
2021/07/22 01:37:40;;;;;;;14.55;12.52;;;;;;;15.95;100.00;101552.91;4932754;29;20198;-75
2021/07/22 01:40:08;;;;;;;17.55;13.13;;;;;;;15.93;100.00;101557.03;4915752;29;20619;-75
2021/07/22 01:42:36;;;;;;;16.83;13.13;;;;;;;15.90;100.00;101555.69;4916800;29;20556;-75
2021/07/22 01:45:05;;;;;;;14.70;12.57;;;;;;;15.94;100.00;101550.44;4916376;29;20249;-75
2021/07/22 01:47:37;;;;;;;16.05;12.95;;;;;;;16.06;100.00;101550.91;4917070;29;20262;-75
2021/07/22 01:50:06;;;;;;;14.13;12.05;;;;;;;16.22;100.00;101553.25;4931553;28;20700;-75
2021/07/22 01:52:32;;;;;;;15.77;11.88;;;;;;;16.27;100.00;101553.22;4932489;29;20184;-75
2021/07/22 01:55:00;;;;;;;13.98;11.75;;;;;;;16.28;100.00;101546.63;4932310;29;20207;-74
2021/07/22 01:57:26;;;;;;;12.35;11.13;;;;;;;16.37;100.00;101539.41;4901083;29;20246;-75
2021/07/22 01:59:59;;;;;;;14.70;12.32;;;;;;;16.30;100.00;101547.16;4931993;29;20208;-75
2021/07/22 02:02:31;;;;;;;14.88;12.15;;;;;;;16.31;100.00;101546.06;4933422;29;20227;-75
2021/07/22 02:04:59;;;;;;;13.90;12.18;;;;;;;16.21;100.00;101530.50;4932830;29;20631;-75
2021/07/22 02:07:27;;;;;;;14.55;11.35;;;;;;;16.18;100.00;101541.22;4932614;29;20340;-75
2021/07/22 02:10:01;;;;;;;14.25;12.40;;;;;;;16.18;100.00;101541.22;4921878;29;20619;-75
2021/07/22 02:12:29;;;;;;;15.60;12.57;;;;;;;16.11;100.00;101539.91;4936790;29;20626;-75
2021/07/22 02:15:01;;;;;;;14.00;12.00;;;;;;;16.05;100.00;101544.59;4921414;29;20218;-76
2021/07/22 02:17:26;;;;;;;16.00;11.75;;;;;;;16.09;100.00;101548.41;4935501;29;20224;-75
2021/07/22 02:19:52;;;;;;;16.88;12.25;;;;;;;16.07;100.00;101538.84;4919435;29;20204;-76
2021/07/22 02:22:20;;;;;;;15.02;12.07;;;;;;;16.14;100.00;101545.63;4951041;28;20220;-75
2021/07/22 02:24:57;;;;;;;15.50;12.27;;;;;;;16.21;100.00;101546.16;4927420;28;20255;-75
2021/07/22 02:27:47;;;;;;;13.75;12.35;;;;;;;16.13;100.00;101549.47;4922795;29;20212;-75
2021/07/22 02:30:16;;;;;;;16.45;12.80;;;;;;;16.15;100.00;101539.03;4910776;29;20670;-75
2021/07/22 02:32:43;;;;;;;13.82;12.20;;;;;;;16.16;100.00;101535.19;4935554;29;20255;-76
2021/07/22 02:35:15;;;;;;;15.68;13.45;;;;;;;16.20;100.00;101542.56;4935061;29;20227;-75
2021/07/22 02:38:02;;;;;;;14.18;12.35;;;;;;;16.17;100.00;101531.31;4948928;28;20203;-75
2021/07/22 02:40:31;;;;;;;16.98;12.40;;;;;;;16.13;100.00;101538.50;4935097;29;20223;-75
2021/07/22 02:42:57;;;;;;;14.13;12.00;;;;;;;16.34;100.00;101542.75;4919545;29;20191;-75
2021/07/22 02:45:30;;;;;;;15.88;12.90;;;;;;;16.30;100.00;101533.44;4919036;29;20202;-75
2021/07/22 02:47:58;;;;;;;14.65;11.85;;;;;;;16.43;100.00;101543.75;4935582;29;20258;-76
2021/07/22 02:50:27;;;;;;;15.85;12.75;;;;;;;16.39;100.00;101542.69;4934649;28;20310;-75
2021/07/22 02:53:02;;;;;;;14.73;12.30;;;;;;;16.43;100.00;101543.75;4906220;29;20187;-76
2021/07/22 02:55:32;;;;;;;14.32;12.35;;;;;;;16.45;100.00;101547.03;4919429;29;20223;-76
2021/07/22 02:58:06;;;;;;;13.68;11.80;;;;;;;16.58;100.00;101539.75;4934905;29;20973;-76
2021/07/22 03:00:39;;;;;;;14.07;12.05;;;;;;;16.51;100.00;101545.88;4920556;29;20235;-75
2021/07/22 03:03:06;;;;;;;14.13;12.20;;;;;;;16.61;100.00;101552.06;4919791;29;20190;-75
2021/07/22 03:05:34;;;;;;;14.75;12.43;;;;;;;16.63;100.00;101550.69;4934266;29;20227;-76
2021/07/22 03:08:06;;;;;;;13.43;11.43;;;;;;;16.50;100.00;101549.72;4919767;29;20192;-75
2021/07/22 03:10:37;;;;;;;13.75;11.35;;;;;;;16.78;100.00;101536.78;4934434;29;20262;-75
2021/07/22 03:13:08;;;;;;;15.75;12.02;;;;;;;16.68;100.00;101553.38;4919446;29;20187;-75
2021/07/22 03:15:35;;;;;;;14.30;11.68;;;;;;;16.66;100.00;101543.78;4918765;29;20283;-75
2021/07/22 03:18:08;;;;;;;14.88;12.35;;;;;;;16.78;100.00;101547.78;4919346;29;20254;-75
2021/07/22 03:20:39;;;;;;;13.95;12.25;;;;;;;16.80;100.00;101544.75;4918320;29;20254;-76
2021/07/22 03:23:08;;;;;;;15.15;12.07;;;;;;;16.79;100.00;101543.91;4919834;29;20211;-75
2021/07/22 03:25:41;;;;;;;14.02;12.52;;;;;;;16.66;100.00;101554.75;4924151;29;20215;-75
2021/07/22 03:28:29;;;;;;;13.27;11.48;;;;;;;16.58;100.00;101553.47;4934630;29;20677;-76
2021/07/22 03:31:16;;;;;;;13.13;11.05;;;;;;;16.75;100.00;101553.03;4920870;29;20286;-75
2021/07/22 03:33:48;;;;;;;14.27;11.90;;;;;;;16.92;100.00;101537.72;4920656;29;20294;-76
2021/07/22 03:36:20;;;;;;;13.80;11.60;;;;;;;16.91;100.00;101536.09;4919300;29;20231;-75
2021/07/22 03:39:05;;;;;;;13.20;11.70;;;;;;;16.87;100.00;101537.78;4950172;29;20291;-75
2021/07/22 03:41:33;;;;;;;16.25;12.23;;;;;;;16.89;100.00;101541.06;4918713;29;20243;-75
2021/07/22 03:44:30;;;;;;;16.25;11.98;;;;;;;16.85;100.00;101531.78;4923039;29;20216;-75
2021/07/22 03:46:58;;;;;;;14.70;12.13;;;;;;;16.82;100.00;101537.84;4918842;29;20243;-75
2021/07/22 03:49:25;;;;;;;14.32;12.25;;;;;;;16.76;100.00;101536.28;4940887;29;20191;-75
2021/07/22 03:51:55;;;;;;;15.40;12.27;;;;;;;16.76;100.00;101539.00;4917593;29;20224;-74
2021/07/22 03:54:25;;;;;;;13.82;12.40;;;;;;;16.83;100.00;101538.66;4900480;29;20211;-73
2021/07/22 03:56:53;;;;;;;13.45;12.02;;;;;;;16.84;100.00;101534.81;4936858;29;20640;-72
2021/07/22 03:59:24;;;;;;;13.85;12.02;;;;;;;16.89;100.00;101532.81;4918195;29;20192;-73
2021/07/22 04:01:54;;;;;;;17.25;13.20;;;;;;;16.84;100.00;101545.78;4934060;29;20653;-72
2021/07/22 04:04:28;;;;;;;16.05;12.38;;;;;;;16.85;100.00;101540.00;4904335;29;20287;-73
2021/07/22 04:06:58;;;;;;;15.73;12.18;;;;;;;16.74;100.00;101540.41;4911652;29;20603;-73
2021/07/22 04:09:55;;;;;;;14.45;12.48;;;;;;;16.79;100.00;101543.91;4906634;29;20195;-74
2021/07/22 04:12:31;;;;;;;15.15;12.68;;;;;;;16.84;100.00;101545.78;4921337;29;20223;-74
2021/07/22 04:15:20;;;;;;;17.55;13.20;;;;;;;16.88;100.00;101539.41;4907965;28;20215;-74
2021/07/22 04:17:52;;;;;;;17.85;12.90;;;;;;;16.88;100.00;101547.66;4917782;29;20203;-73
2021/07/22 04:20:42;;;;;;;16.63;12.77;;;;;;;16.84;100.00;101554.84;4933911;29;20299;-74
2021/07/22 04:23:30;;;;;;;14.55;12.35;;;;;;;16.84;100.00;101546.59;4946841;29;20208;-74
2021/07/22 04:26:15;;;;;;;14.07;11.95;;;;;;;17.00;100.00;101548.06;4906094;29;20243;-74
2021/07/22 04:28:55;;;;;;;13.63;11.82;;;;;;;17.02;100.00;101545.84;4949552;29;20568;-74
2021/07/22 04:31:25;;;;;;;17.75;13.55;;;;;;;17.15;100.00;101536.91;4918027;29;20223;-74
2021/07/22 04:34:09;;;;;;;16.55;13.15;;;;;;;17.01;100.00;101536.81;4934278;29;20230;-74
2021/07/22 04:37:06;;;;;;;15.70;13.25;;;;;;;17.11;100.00;101541.34;4920408;29;20235;-76
2021/07/22 04:39:43;;;;;;;15.35;12.77;;;;;;;17.05;100.00;101537.00;4933156;29;20304;-75
2021/07/22 04:42:28;;;;;;;15.85;13.00;;;;;;;17.04;100.00;101538.94;4919813;29;20226;-74
2021/07/22 04:45:20;;;;;;;15.93;13.30;;;;;;;17.03;100.00;101542.81;4922236;29;20211;-74
2021/07/22 04:48:04;;;;;;;15.77;12.55;;;;;;;17.01;100.00;101542.28;4932048;29;20274;-74
2021/07/22 04:50:48;;;;;;;15.38;12.40;;;;;;;17.12;100.00;101548.47;4920318;29;20609;-75
2021/07/22 04:53:23;;;;;;;15.70;12.38;;;;;;;17.17;100.00;101542.94;4904678;29;20211;-73
2021/07/22 04:55:54;;;;;;;16.27;12.25;;;;;;;17.08;100.00;101530.94;4933368;29;20250;-74
2021/07/22 04:58:23;;;;;;;13.60;12.15;;;;;;;17.24;100.00;101532.44;4917515;29;20266;-73
2021/07/22 05:00:53;;;;;;;14.68;12.73;;;;;;;17.14;100.00;101540.75;4917627;29;20237;-74
2021/07/22 05:03:21;;;;;;;15.35;12.35;;;;;;;17.35;100.00;101527.31;4917528;29;20203;-73
2021/07/22 05:05:49;;;;;;;13.63;11.90;;;;;;;17.22;100.00;101531.91;4917668;29;20653;-74
2021/07/22 05:08:21;;;;;;;17.08;12.68;;;;;;;17.25;100.00;101531.28;4932737;29;20470;-73
2021/07/22 05:11:05;;;;;;;14.85;12.63;;;;;;;17.15;100.00;101536.91;4932152;29;20227;-74
2021/07/22 05:13:40;;;;;;;13.63;11.80;;;;;;;17.06;100.00;101533.16;4933309;29;20350;-74
2021/07/22 05:16:16;;;;;;;15.55;12.52;;;;;;;16.96;100.00;101533.31;4932581;29;20227;-73
2021/07/22 05:19:01;;;;;;;15.70;12.43;;;;;;;17.01;100.00;101535.97;4913575;29;20200;-74
2021/07/22 05:21:50;;;;;;;14.35;11.55;;;;;;;17.09;100.00;101546.31;4906998;29;20595;-73
2021/07/22 05:24:23;;;;;;;15.82;11.63;;;;;;;17.20;100.00;101550.59;4902913;29;20270;-73
2021/07/22 05:27:21;;;;;;;12.65;11.18;;;;;;;17.14;100.00;101551.72;4911253;29;20220;-74
2021/07/22 05:30:13;;;;;;;12.18;10.98;;;;;;;17.34;100.00;101547.66;4935262;28;20180;-74
2021/07/22 05:33:14;;;;;;;16.00;10.95;;;;;;;17.39;100.00;101552.25;4882428;29;20224;-75
2021/07/22 05:35:49;;;;;;;15.38;12.13;;;;;;;17.45;100.00;101543.66;4912023;29;20219;-74
2021/07/22 05:38:53;;;;;;;16.35;12.30;;;;;;;17.55;100.00;101542.72;4913399;29;20614;-75
2021/07/22 05:41:19;;;;;;;14.82;11.90;;;;;;;17.57;100.00;101546.78;4903109;29;20305;-74
2021/07/22 05:43:45;;;;;;;13.77;11.68;;;;;;;17.58;100.00;101542.94;4952252;29;20229;-74
2021/07/22 05:46:17;;;;;;;14.90;11.48;;;;;;;17.62;100.00;101543.13;4920252;29;20633;-74
2021/07/22 05:48:43;;;;;;;13.93;11.23;;;;;;;17.65;100.00;101540.59;4904749;29;20180;-73
2021/07/22 05:51:08;;;;;;;14.80;10.77;;;;;;;17.86;100.00;101544.72;4935562;29;20375;-74
2021/07/22 05:53:37;;;;;;;14.32;11.48;;;;;;;17.83;100.00;101539.81;4914171;29;20203;-74
2021/07/22 05:56:02;;;;;;;13.35;11.25;;;;;;;17.69;100.00;101538.94;4920347;29;20643;-74
2021/07/22 05:58:28;;;;;;;14.27;10.98;;;;;;;17.74;100.00;101547.06;4928459;29;20198;-73
2021/07/22 06:00:58;;;;;;;15.73;11.45;;;;;;;17.80;100.00;101545.88;4920211;29;20266;-72
2021/07/22 06:03:26;;;;;;;12.82;11.35;;;;;;;17.72;100.00;101549.31;4920819;29;20208;-74
2021/07/22 06:05:54;;;;;;;13.80;10.30;;;;;;;17.56;100.00;101553.38;4951231;28;20303;-73
2021/07/22 06:08:20;;;;;;;10.93;9.65;;;;;;;17.53;100.00;101554.00;4935583;29;20270;-74
2021/07/22 06:10:48;;;;;;;12.57;10.80;;;;;;;17.59;100.00;101552.78;4951500;29;20224;-74
2021/07/22 06:13:14;;;;;;;12.13;10.43;;;;;;;17.62;100.00;101554.97;4936306;29;20216;-73
2021/07/22 06:15:44;;;;;;;12.40;9.90;;;;;;;17.71;100.00;101550.44;4935162;29;20254;-73
2021/07/22 06:18:12;;;;;;;13.90;9.93;;;;;;;17.90;100.00;101548.50;4935756;29;20211;-73
2021/07/22 06:20:39;;;;;;;12.93;10.00;;;;;;;18.08;100.00;101547.66;4936604;29;20236;-73
2021/07/22 06:23:05;;;;;;;13.15;10.48;;;;;;;18.08;100.00;101547.66;4920442;29;20188;-72
2021/07/22 06:25:32;;;;;;;11.20;9.95;;;;;;;18.10;100.00;101550.97;4904387;29;20274;-74
2021/07/22 06:27:58;;;;;;;12.02;9.68;;;;;;;18.26;100.00;101553.97;4919875;29;20188;-76
2021/07/22 06:30:26;;;;;;;11.40;10.18;;;;;;;18.35;100.00;101549.41;4920140;29;20223;-74
2021/07/22 06:32:56;;;;;;;10.98;9.20;;;;;;;18.23;100.00;101549.06;4904598;29;20745;-74
2021/07/22 06:35:25;;;;;;;13.35;10.35;;;;;;;18.00;100.00;101554.63;4920060;28;20231;-74
2021/07/22 06:37:53;;;;;;;11.73;9.88;;;;;;;18.13;100.00;101554.75;4935636;29;20235;-74
2021/07/22 06:40:34;;;;;;;11.73;9.27;;;;;;;18.30;100.00;101559.69;4949164;29;20229;-74
2021/07/22 06:43:02;;;;;;;12.00;10.40;;;;;;;18.30;100.00;101552.25;4903845;29;20192;-74
2021/07/22 06:45:30;;;;;;;13.27;10.15;;;;;;;18.24;100.00;101556.22;4919031;29;20255;-75
2021/07/22 06:48:01;;;;;;;12.05;10.68;;;;;;;18.20;100.00;101552.44;4920280;29;20279;-75
2021/07/22 06:50:26;;;;;;;11.63;10.45;;;;;;;18.33;100.00;101548.91;4914014;29;20228;-75
2021/07/22 06:52:54;;;;;;;11.57;10.38;;;;;;;18.68;100.00;101557.34;4920266;29;20547;-73
2021/07/22 06:55:22;;;;;;;11.45;10.30;;;;;;;18.33;100.00;101559.06;4900939;29;20635;-75
2021/07/22 06:57:48;;;;;;;13.63;10.77;;;;;;;18.61;100.00;101556.09;4901545;29;20617;-74
2021/07/22 07:00:14;;;;;;;10.73;9.73;;;;;;;18.79;100.00;101556.03;4930686;29;20211;-75
2021/07/22 07:02:45;;;;;;;11.10;9.55;;;;;;;18.65;100.00;101555.19;4918636;29;20255;-74
2021/07/22 07:05:13;;;;;;;11.35;10.15;;;;;;;18.76;100.00;101561.34;4936126;29;20231;-75
2021/07/22 07:07:41;;;;;;;10.32;9.18;;;;;;;18.49;100.00;101561.25;4934831;29;20172;-74
2021/07/22 07:10:07;;;;;;;9.55;8.63;;;;;;;18.74;100.00;101558.06;4918510;29;20190;-74
2021/07/22 07:12:35;;;;;;;9.68;7.90;;;;;;;18.52;100.00;101555.97;4919819;29;20249;-74
2021/07/22 07:15:01;;;;;;;9.43;8.02;;;;;;;18.94;100.00;101559.31;4919414;29;20575;-73
2021/07/22 07:17:26;;;;;;;9.98;7.93;;;;;;;18.98;100.00;101560.34;4935345;29;20295;-73
2021/07/22 07:19:52;;;;;;;8.55;7.65;;;;;;;18.94;100.00;101564.00;4914175;29;20234;-73
2021/07/22 07:22:20;;;;;;;8.32;7.50;;;;;;;18.84;100.00;101557.88;4933937;29;20226;-74
2021/07/22 07:24:45;;;;;;;7.75;6.95;;;;;;;18.92;100.00;101556.03;4902992;29;20192;-75
2021/07/22 07:27:11;;;;;;;8.27;6.10;;;;;;;18.91;100.00;101565.41;4934061;29;20225;-73
2021/07/22 07:29:39;;;;;;;8.73;6.95;;;;;;;18.95;100.00;101565.63;4918494;29;20188;-73
2021/07/22 07:32:07;;;;;;;7.43;6.57;;;;;;;18.94;100.00;101555.75;4913170;29;20254;-73
2021/07/22 07:34:32;;;;;;;8.23;7.35;;;;;;;19.00;100.00;101569.13;4918636;29;20211;-74
2021/07/22 07:37:03;;;;;;;84.63;72.68;;;;;;;19.20;100.00;101579.75;4935144;28;21002;-76
2021/07/22 07:39:29;;;;;;;42.85;37.17;;;;;;;19.25;100.00;101565.88;4918277;29;20192;-76
2021/07/22 07:41:59;;;;;;;10.90;9.30;;;;;;;19.29;100.00;101569.66;4933242;29;20233;-74
2021/07/22 07:44:27;;;;;;;8.80;6.55;;;;;;;19.33;100.00;101574.22;4931151;29;20207;-75
2021/07/22 07:46:55;;;;;;;31.02;27.88;;;;;;;19.36;100.00;101567.28;4918320;29;20223;-73
2021/07/22 07:49:25;;;;;;;14.10;12.35;;;;;;;19.35;100.00;101571.16;4933809;29;20202;-73
2021/07/22 07:51:51;;;;;;;9.32;7.07;;;;;;;19.35;100.00;101571.16;4934644;29;20270;-74
2021/07/22 07:54:21;;;;;;;8.27;7.20;;;;;;;19.41;100.00;101575.44;4903684;29;20215;-74
2021/07/22 07:56:47;;;;;;;9.95;6.68;;;;;;;19.36;100.00;101572.81;4917587;29;20230;-74
2021/07/22 07:59:12;;;;;;;8.32;6.32;;;;;;;19.48;100.00;101575.84;4933072;29;20195;-76
2021/07/22 08:01:40;;;;;;;7.88;7.07;;;;;;;19.89;100.00;101572.72;4918568;29;20238;-74
2021/07/22 08:04:08;;;;;;;7.55;6.85;;;;;;;19.80;100.00;101563.53;4933616;29;20212;-76
2021/07/22 08:06:36;;;;;;;7.13;6.43;;;;;;;20.11;100.00;101570.81;4910646;29;20726;-76
2021/07/22 08:09:04;;;;;;;8.48;7.00;;;;;;;19.93;100.00;101567.41;4918108;29;20192;-75
2021/07/22 08:11:32;;;;;;;7.40;6.63;;;;;;;19.71;100.00;101559.88;4917948;29;20765;-75
2021/07/22 08:13:58;;;;;;;6.40;5.80;;;;;;;20.10;100.00;101562.84;4900800;29;20200;-74
2021/07/22 08:16:26;;;;;;;6.50;5.90;;;;;;;20.52;100.00;101569.47;4906157;29;20220;-79
2021/07/22 08:18:54;;;;;;;6.55;5.88;;;;;;;20.16;100.00;101569.84;4914791;29;20192;-76
2021/07/22 08:21:23;;;;;;;7.75;5.60;;;;;;;19.97;100.00;101563.72;4932865;29;20315;-75
2021/07/22 08:23:49;;;;;;;6.72;5.78;;;;;;;20.08;100.00;101565.09;4917940;29;20258;-73
2021/07/22 08:26:15;;;;;;;6.30;5.70;;;;;;;20.64;100.00;101558.72;4908580;29;20244;-73
2021/07/22 08:28:42;;;;;;;6.30;5.68;;;;;;;20.25;100.00;101555.00;4917287;29;20194;-71
2021/07/22 08:31:10;;;;;;;6.78;6.07;;;;;;;20.71;100.00;101556.28;4917212;29;20260;-76
2021/07/22 08:33:36;;;;;;;6.85;5.70;;;;;;;20.67;100.00;101563.56;4905388;29;20214;-77
2021/07/22 08:36:01;;;;;;;7.75;6.00;;;;;;;20.78;100.00;101564.13;4930614;29;20284;-76
2021/07/22 08:38:29;;;;;;;6.55;5.70;;;;;;;20.54;100.00;101561.69;4924919;29;20218;-75
2021/07/22 08:40:57;;;;;;;6.63;5.85;;;;;;;20.37;100.00;101549.72;4938357;29;20247;-76
2021/07/22 08:43:28;;;;;;;6.57;5.70;;;;;;;20.30;100.00;101551.31;4897878;29;20208;-77
2021/07/22 08:45:56;;;;;;;7.07;6.38;;;;;;;20.40;100.00;101551.03;4904875;29;20219;-76
2021/07/22 08:48:24;;;;;;;7.07;6.20;;;;;;;20.70;99.78;101546.38;4920495;29;20183;-77
2021/07/22 08:50:52;;;;;;;6.68;6.00;;;;;;;21.07;99.85;101548.66;4909373;29;20234;-76
2021/07/22 08:53:21;;;;;;;6.85;6.15;;;;;;;21.27;97.19;101546.94;4923273;29;20582;-76
2021/07/22 08:55:49;;;;;;;8.18;5.90;;;;;;;20.83;96.52;101552.94;4916185;29;20727;-73
2021/07/22 08:58:17;;;;;;;7.15;6.13;;;;;;;21.14;96.90;101533.25;4948731;29;20188;-74
2021/07/22 09:00:42;;;;;;;7.00;6.30;;;;;;;21.55;92.70;101531.72;4933081;29;20231;-72
2021/07/22 09:03:12;;;;;;;6.93;6.22;;;;;;;21.54;94.02;101535.66;4919495;29;20231;-73
2021/07/22 09:05:41;;;;;;;7.63;6.82;;;;;;;21.26;92.65;101534.25;4903922;29;20230;-73
2021/07/22 09:08:09;;;;;;;7.35;6.20;;;;;;;21.58;90.11;101542.16;4935811;29;20210;-72
2021/07/22 09:10:35;;;;;;;6.95;6.25;;;;;;;21.63;91.50;101533.72;4935363;29;20251;-71
2021/07/22 09:13:03;;;;;;;15.13;13.57;;;;;;;21.89;90.87;101532.59;4917324;29;20199;-74
2021/07/22 09:15:32;;;;;;;7.15;6.32;;;;;;;21.77;89.79;101529.63;4917838;29;20223;-74
2021/07/22 09:17:57;;;;;;;6.80;6.10;;;;;;;21.62;91.46;101530.13;4933101;29;20195;-75
2021/07/22 09:20:33;;;;;;;6.30;5.80;;;;;;;21.79;92.67;101532.09;4916547;29;20227;-74
2021/07/22 09:23:02;;;;;;;6.85;6.20;;;;;;;21.95;89.63;101531.28;4914144;29;20192;-72
2021/07/22 09:25:36;;;;;;;7.70;6.97;;;;;;;22.53;87.10;101532.38;4897762;29;20255;-73
2021/07/22 09:28:02;;;;;;;6.47;5.72;;;;;;;23.69;83.22;101524.66;4913475;29;20187;-72
2021/07/22 09:30:30;;;;;;;7.05;5.93;;;;;;;23.13;77.60;101522.72;4923444;29;20592;-73
2021/07/22 09:32:56;;;;;;;6.65;5.60;;;;;;;23.39;74.77;101524.22;4933765;29;20188;-72
2021/07/22 09:35:22;;;;;;;6.05;5.45;;;;;;;23.02;77.06;101522.28;4932486;28;20755;-72
2021/07/22 09:37:57;;;;;;;5.93;5.43;;;;;;;23.75;75.33;101516.94;4933361;29;20192;-74
2021/07/22 09:40:25;;;;;;;7.05;5.45;;;;;;;23.46;79.37;101521.69;4948207;28;20261;-74
2021/07/22 09:42:54;;;;;;;9.85;7.03;;;;;;;23.50;74.89;101519.88;4932414;29;20180;-71
2021/07/22 09:45:23;;;;;;;8.73;7.88;;;;;;;23.21;75.70;101517.94;4931963;29;20211;-71
2021/07/22 09:47:49;;;;;;;10.25;9.32;;;;;;;23.62;78.73;101512.47;4915904;29;20233;-75
2021/07/22 09:50:18;;;;;;;7.53;5.72;;;;;;;23.43;75.44;101519.59;4932089;28;20648;-73
2021/07/22 09:52:45;;;;;;;9.07;6.65;;;;;;;23.26;76.28;101516.94;4916530;29;20192;-69
2021/07/22 09:55:30;;;;;;;7.15;6.45;;;;;;;22.94;75.66;101517.56;4932270;29;20203;-75
2021/07/22 09:57:59;;;;;;;6.68;6.05;;;;;;;22.23;82.17;101524.28;4913197;29;20263;-72
2021/07/22 10:00:26;;;;;;;7.40;6.50;;;;;;;22.53;78.66;101527.66;4916263;29;20687;-73
2021/07/22 10:02:52;;;;;;;7.68;5.15;;;;;;;22.18;78.36;101519.75;4916507;29;20537;-74
2021/07/22 10:05:34;;;;;;;5.22;4.72;;;;;;;22.51;73.58;101526.38;4932649;29;20600;-73
2021/07/22 10:07:59;;;;;;;5.13;4.57;;;;;;;22.26;76.01;101527.22;4895914;29;20203;-75
2021/07/22 10:10:26;;;;;;;6.13;4.88;;;;;;;22.03;76.76;101534.06;4900534;28;20275;-79
2021/07/22 10:12:59;;;;;;;7.05;5.47;;;;;;;22.37;77.43;101516.63;4918034;29;20274;-73
2021/07/22 10:15:36;;;;;;;5.38;4.88;;;;;;;23.37;74.73;101510.66;4904808;28;20575;-74
2021/07/22 10:18:03;;;;;;;5.45;4.82;;;;;;;23.92;71.43;101506.53;4932578;29;20720;-72
2021/07/22 10:20:31;;;;;;;6.75;4.50;;;;;;;23.53;70.08;101500.59;4931837;29;20232;-72
2021/07/22 10:22:59;;;;;;;4.63;4.10;;;;;;;22.93;67.71;101510.41;4908994;29;20184;-77
2021/07/22 10:25:25;;;;;;;4.88;4.40;;;;;;;23.05;68.57;101501.38;4909337;29;20212;-74
2021/07/22 10:27:55;;;;;;;8.15;5.03;;;;;;;23.25;66.83;101493.13;4935972;29;20565;-74
2021/07/22 10:30:23;;;;;;;4.97;4.40;;;;;;;22.68;69.75;101506.91;4919809;29;20231;-72
2021/07/22 10:32:55;;;;;;;7.45;4.88;;;;;;;22.60;70.11;101504.97;4916321;29;20204;-73
2021/07/22 10:35:22;;;;;;;5.00;4.50;;;;;;;22.51;72.41;101495.88;4928242;29;20654;-73
2021/07/22 10:38:10;;;;;;;5.50;4.82;;;;;;;22.34;71.85;101493.13;4915621;29;20220;-77
2021/07/22 10:40:51;;;;;;;5.13;4.60;;;;;;;23.12;69.54;101485.84;4934383;29;20243;-74
2021/07/22 10:43:35;;;;;;;4.97;4.47;;;;;;;23.85;65.63;101483.25;4912619;29;20726;-75
2021/07/22 10:46:04;;;;;;;5.60;5.10;;;;;;;23.85;63.72;101481.28;4924450;29;20208;-74
2021/07/22 10:48:30;;;;;;;5.20;4.70;;;;;;;23.69;64.87;101488.56;4918466;29;20629;-75
2021/07/22 10:50:56;;;;;;;4.97;4.47;;;;;;;23.53;67.43;101495.03;4934307;29;20223;-74
2021/07/22 10:53:41;;;;;;;6.95;4.68;;;;;;;23.93;63.21;101480.38;4935206;29;20302;-74
2021/07/22 10:56:14;;;;;;;7.25;4.93;;;;;;;23.47;64.01;101481.72;4949064;28;20238;-77
2021/07/22 10:58:43;;;;;;;6.35;4.35;;;;;;;23.16;65.09;101489.56;4915421;29;20196;-74
2021/07/22 11:01:08;;;;;;;5.22;4.32;;;;;;;22.49;70.38;101481.53;4928129;29;20672;-74
2021/07/22 11:03:34;;;;;;;5.18;4.38;;;;;;;22.51;68.44;101485.63;4934068;29;20239;-74
2021/07/22 11:06:01;;;;;;;6.18;4.50;;;;;;;22.48;69.46;101483.50;4933243;29;20223;-74
2021/07/22 11:08:30;;;;;;;5.32;4.82;;;;;;;22.66;69.36;101489.81;4932233;29;20584;-74
2021/07/22 11:10:57;;;;;;;5.95;4.50;;;;;;;22.48;69.13;101482.69;4916571;29;20259;-73
2021/07/22 11:13:37;;;;;;;5.70;4.45;;;;;;;22.71;69.10;101473.81;4918879;29;20212;-74
2021/07/22 11:16:06;;;;;;;6.10;4.40;;;;;;;23.06;67.47;101470.56;4936187;28;20231;-74
2021/07/22 11:18:44;;;;;;;4.40;4.00;;;;;;;23.78;62.92;101461.56;4917208;29;20198;-73
2021/07/22 11:21:12;;;;;;;5.45;4.78;;;;;;;23.96;61.64;101469.41;4940102;29;20709;-74
2021/07/22 11:23:39;;;;;;;5.22;4.75;;;;;;;23.55;62.07;101458.63;4919206;29;20214;-73
2021/07/22 11:26:07;;;;;;;4.80;4.40;;;;;;;23.89;64.70;101454.44;4918673;29;20294;-71